sensor_id;sensor_type;location;lat;lon;timestamp;temperature;humidity
15819;DHT22;8010;53.986;12.106;2023-07-20T00:01:03;13.90;99.90
15819;DHT22;8010;53.986;12.106;2023-07-20T00:03:29;13.80;99.90
15819;DHT22;8010;53.986;12.106;2023-07-20T00:05:54;13.90;99.90
15819;DHT22;8010;53.986;12.106;2023-07-20T00:08:20;13.80;99.90
15819;DHT22;8010;53.986;12.106;2023-07-20T00:10:45;13.80;99.90
15819;DHT22;8010;53.986;12.106;2023-07-20T00:13:11;13.80;99.90
15819;DHT22;8010;53.986;12.106;2023-07-20T00:15:37;13.80;99.90
15819;DHT22;8010;53.986;12.106;2023-07-20T00:18:06;13.80;99.90
15819;DHT22;8010;53.986;12.106;2023-07-20T00:20:31;13.80;99.90
15819;DHT22;8010;53.986;12.106;2023-07-20T00:22:57;13.80;99.90
15819;DHT22;8010;53.986;12.106;2023-07-20T00:25:26;13.80;99.90
15819;DHT22;8010;53.986;12.106;2023-07-20T00:27:51;13.80;99.90
15819;DHT22;8010;53.986;12.106;2023-07-20T00:30:17;13.70;99.90
15819;DHT22;8010;53.986;12.106;2023-07-20T00:32:43;13.70;99.90
15819;DHT22;8010;53.986;12.106;2023-07-20T00:35:09;13.70;99.90
15819;DHT22;8010;53.986;12.106;2023-07-20T00:37:37;13.70;99.90
15819;DHT22;8010;53.986;12.106;2023-07-20T00:40:03;13.70;99.90
15819;DHT22;8010;53.986;12.106;2023-07-20T00:42:33;13.60;99.90
15819;DHT22;8010;53.986;12.106;2023-07-20T00:44:58;13.60;99.90
15819;DHT22;8010;53.986;12.106;2023-07-20T00:47:24;13.60;99.90
15819;DHT22;8010;53.986;12.106;2023-07-20T00:49:50;13.50;99.90
15819;DHT22;8010;53.986;12.106;2023-07-20T00:52:16;13.50;99.90
15819;DHT22;8010;53.986;12.106;2023-07-20T00:54:44;13.40;99.90
15819;DHT22;8010;53.986;12.106;2023-07-20T00:57:09;13.40;99.90
15819;DHT22;8010;53.986;12.106;2023-07-20T00:59:35;13.40;99.90
15819;DHT22;8010;53.986;12.106;2023-07-20T01:02:01;13.40;99.90
15819;DHT22;8010;53.986;12.106;2023-07-20T01:04:27;13.30;99.90
15819;DHT22;8010;53.986;12.106;2023-07-20T01:07:03;13.30;99.90
15819;DHT22;8010;53.986;12.106;2023-07-20T01:09:44;13.30;99.90
15819;DHT22;8010;53.986;12.106;2023-07-20T01:12:24;13.30;99.90
15819;DHT22;8010;53.986;12.106;2023-07-20T01:14:51;13.30;99.90
15819;DHT22;8010;53.986;12.106;2023-07-20T01:17:16;13.20;99.90
15819;DHT22;8010;53.986;12.106;2023-07-20T01:19:42;13.20;99.90
15819;DHT22;8010;53.986;12.106;2023-07-20T01:22:32;13.20;99.90
15819;DHT22;8010;53.986;12.106;2023-07-20T01:25:32;13.10;99.90
15819;DHT22;8010;53.986;12.106;2023-07-20T01:31:24;13.00;99.90
15819;DHT22;8010;53.986;12.106;2023-07-20T01:33:52;13.00;99.90
15819;DHT22;8010;53.986;12.106;2023-07-20T01:36:19;13.00;99.90
15819;DHT22;8010;53.986;12.106;2023-07-20T01:38:47;12.90;99.90
15819;DHT22;8010;53.986;12.106;2023-07-20T01:41:13;13.00;99.90
15819;DHT22;8010;53.986;12.106;2023-07-20T01:43:40;12.90;99.90
15819;DHT22;8010;53.986;12.106;2023-07-20T01:46:06;12.90;99.90
15819;DHT22;8010;53.986;12.106;2023-07-20T01:48:31;12.90;99.90
15819;DHT22;8010;53.986;12.106;2023-07-20T01:50:57;12.90;99.90
15819;DHT22;8010;53.986;12.106;2023-07-20T01:53:22;12.90;99.90
15819;DHT22;8010;53.986;12.106;2023-07-20T01:55:48;12.80;99.90
15819;DHT22;8010;53.986;12.106;2023-07-20T01:58:14;12.80;99.90
15819;DHT22;8010;53.986;12.106;2023-07-20T02:00:39;12.80;99.90
15819;DHT22;8010;53.986;12.106;2023-07-20T02:03:05;12.80;99.90
15819;DHT22;8010;53.986;12.106;2023-07-20T02:05:30;12.80;99.90
15819;DHT22;8010;53.986;12.106;2023-07-20T02:07:56;12.70;99.90
15819;DHT22;8010;53.986;12.106;2023-07-20T02:10:22;12.80;99.90
15819;DHT22;8010;53.986;12.106;2023-07-20T02:12:47;12.80;99.90
15819;DHT22;8010;53.986;12.106;2023-07-20T02:15:13;12.80;99.90
15819;DHT22;8010;53.986;12.106;2023-07-20T02:17:42;12.80;99.90
15819;DHT22;8010;53.986;12.106;2023-07-20T02:20:08;12.80;99.90
15819;DHT22;8010;53.986;12.106;2023-07-20T02:22:36;12.80;99.90
15819;DHT22;8010;53.986;12.106;2023-07-20T02:25:01;12.90;99.90
15819;DHT22;8010;53.986;12.106;2023-07-20T02:27:27;12.90;99.90
15819;DHT22;8010;53.986;12.106;2023-07-20T02:29:52;12.90;99.90
15819;DHT22;8010;53.986;12.106;2023-07-20T02:32:18;12.90;99.90
15819;DHT22;8010;53.986;12.106;2023-07-20T02:34:43;12.90;99.90
15819;DHT22;8010;53.986;12.106;2023-07-20T02:37:09;12.90;99.90
15819;DHT22;8010;53.986;12.106;2023-07-20T02:39:35;12.90;99.90
15819;DHT22;8010;53.986;12.106;2023-07-20T02:42:01;12.90;99.90
15819;DHT22;8010;53.986;12.106;2023-07-20T02:44:26;12.90;99.90
15819;DHT22;8010;53.986;12.106;2023-07-20T02:46:52;12.90;99.90
15819;DHT22;8010;53.986;12.106;2023-07-20T02:49:17;12.90;99.90
15819;DHT22;8010;53.986;12.106;2023-07-20T02:51:43;13.00;99.90
15819;DHT22;8010;53.986;12.106;2023-07-20T02:54:08;13.00;99.90
15819;DHT22;8010;53.986;12.106;2023-07-20T02:56:34;13.10;99.90
15819;DHT22;8010;53.986;12.106;2023-07-20T02:59:01;13.10;99.90
15819;DHT22;8010;53.986;12.106;2023-07-20T03:01:27;13.20;99.90
15819;DHT22;8010;53.986;12.106;2023-07-20T03:03:55;13.20;99.90
15819;DHT22;8010;53.986;12.106;2023-07-20T03:06:20;13.20;99.90
15819;DHT22;8010;53.986;12.106;2023-07-20T03:08:46;13.30;99.90
15819;DHT22;8010;53.986;12.106;2023-07-20T03:11:18;13.30;99.90
15819;DHT22;8010;53.986;12.106;2023-07-20T03:13:44;13.30;99.90
15819;DHT22;8010;53.986;12.106;2023-07-20T03:16:11;13.30;99.90
15819;DHT22;8010;53.986;12.106;2023-07-20T03:18:38;13.40;99.90
15819;DHT22;8010;53.986;12.106;2023-07-20T03:21:04;13.40;99.90
15819;DHT22;8010;53.986;12.106;2023-07-20T03:23:30;13.40;99.90
15819;DHT22;8010;53.986;12.106;2023-07-20T03:25:56;13.40;99.90
15819;DHT22;8010;53.986;12.106;2023-07-20T03:28:21;13.40;99.90
15819;DHT22;8010;53.986;12.106;2023-07-20T03:30:53;13.50;99.90
15819;DHT22;8010;53.986;12.106;2023-07-20T03:33:19;13.50;99.90
15819;DHT22;8010;53.986;12.106;2023-07-20T03:35:45;13.50;99.90
15819;DHT22;8010;53.986;12.106;2023-07-20T03:38:10;13.50;99.90
15819;DHT22;8010;53.986;12.106;2023-07-20T03:40:36;13.50;99.90
15819;DHT22;8010;53.986;12.106;2023-07-20T03:43:01;13.50;99.90
15819;DHT22;8010;53.986;12.106;2023-07-20T03:45:27;13.60;99.90
15819;DHT22;8010;53.986;12.106;2023-07-20T03:47:52;13.60;99.90
15819;DHT22;8010;53.986;12.106;2023-07-20T03:50:18;13.60;99.90
15819;DHT22;8010;53.986;12.106;2023-07-20T03:52:44;13.60;99.90
15819;DHT22;8010;53.986;12.106;2023-07-20T03:55:09;13.60;99.90
15819;DHT22;8010;53.986;12.106;2023-07-20T03:57:35;13.60;99.90
15819;DHT22;8010;53.986;12.106;2023-07-20T04:00:01;13.70;99.90
15819;DHT22;8010;53.986;12.106;2023-07-20T04:02:27;13.70;99.90
15819;DHT22;8010;53.986;12.106;2023-07-20T04:04:52;13.70;99.90
15819;DHT22;8010;53.986;12.106;2023-07-20T04:07:17;13.70;99.90
15819;DHT22;8010;53.986;12.106;2023-07-20T04:09:43;13.70;99.90
15819;DHT22;8010;53.986;12.106;2023-07-20T04:12:09;13.80;99.90
15819;DHT22;8010;53.986;12.106;2023-07-20T04:14:34;13.80;99.90
15819;DHT22;8010;53.986;12.106;2023-07-20T04:17:00;13.80;99.90
15819;DHT22;8010;53.986;12.106;2023-07-20T04:19:26;13.80;99.90
15819;DHT22;8010;53.986;12.106;2023-07-20T04:21:51;13.80;99.90
15819;DHT22;8010;53.986;12.106;2023-07-20T04:24:17;13.90;99.90
15819;DHT22;8010;53.986;12.106;2023-07-20T04:26:42;13.90;99.90
15819;DHT22;8010;53.986;12.106;2023-07-20T04:29:08;13.90;99.90
15819;DHT22;8010;53.986;12.106;2023-07-20T04:31:34;14.00;99.90
15819;DHT22;8010;53.986;12.106;2023-07-20T04:34:00;14.00;99.90
15819;DHT22;8010;53.986;12.106;2023-07-20T04:36:26;14.00;99.90
15819;DHT22;8010;53.986;12.106;2023-07-20T04:38:52;14.00;99.90
15819;DHT22;8010;53.986;12.106;2023-07-20T04:41:17;14.00;99.90
15819;DHT22;8010;53.986;12.106;2023-07-20T04:43:43;14.00;99.90
15819;DHT22;8010;53.986;12.106;2023-07-20T04:46:10;14.00;99.90
15819;DHT22;8010;53.986;12.106;2023-07-20T04:48:36;14.00;99.90
15819;DHT22;8010;53.986;12.106;2023-07-20T04:51:02;14.00;99.90
15819;DHT22;8010;53.986;12.106;2023-07-20T04:53:28;14.00;99.90
15819;DHT22;8010;53.986;12.106;2023-07-20T04:55:53;14.10;99.90
15819;DHT22;8010;53.986;12.106;2023-07-20T04:58:20;14.10;99.90
15819;DHT22;8010;53.986;12.106;2023-07-20T05:00:46;14.10;99.90
15819;DHT22;8010;53.986;12.106;2023-07-20T05:03:11;14.20;99.90
15819;DHT22;8010;53.986;12.106;2023-07-20T05:05:37;14.20;99.90
15819;DHT22;8010;53.986;12.106;2023-07-20T05:08:04;14.20;99.90
15819;DHT22;8010;53.986;12.106;2023-07-20T05:10:29;14.30;99.90
15819;DHT22;8010;53.986;12.106;2023-07-20T05:12:55;14.30;99.90
15819;DHT22;8010;53.986;12.106;2023-07-20T05:15:20;14.40;99.90
15819;DHT22;8010;53.986;12.106;2023-07-20T05:17:46;14.50;99.90
15819;DHT22;8010;53.986;12.106;2023-07-20T05:20:14;14.60;99.90
15819;DHT22;8010;53.986;12.106;2023-07-20T05:22:39;14.60;99.90
15819;DHT22;8010;53.986;12.106;2023-07-20T05:25:09;14.70;99.90
15819;DHT22;8010;53.986;12.106;2023-07-20T05:27:39;14.80;99.90
15819;DHT22;8010;53.986;12.106;2023-07-20T05:30:05;14.90;99.90
15819;DHT22;8010;53.986;12.106;2023-07-20T05:32:32;14.90;99.90
15819;DHT22;8010;53.986;12.106;2023-07-20T05:34:58;14.90;99.90
15819;DHT22;8010;53.986;12.106;2023-07-20T05:37:23;15.00;99.90
15819;DHT22;8010;53.986;12.106;2023-07-20T05:39:49;15.00;99.90
15819;DHT22;8010;53.986;12.106;2023-07-20T05:42:15;15.10;99.90
15819;DHT22;8010;53.986;12.106;2023-07-20T05:44:41;15.20;99.90
15819;DHT22;8010;53.986;12.106;2023-07-20T05:47:07;15.20;99.90
15819;DHT22;8010;53.986;12.106;2023-07-20T05:49:33;15.30;99.90
15819;DHT22;8010;53.986;12.106;2023-07-20T05:51:59;15.40;99.90
15819;DHT22;8010;53.986;12.106;2023-07-20T05:54:26;15.50;99.90
15819;DHT22;8010;53.986;12.106;2023-07-20T05:56:52;15.50;99.90
15819;DHT22;8010;53.986;12.106;2023-07-20T05:59:18;15.60;99.90
15819;DHT22;8010;53.986;12.106;2023-07-20T06:01:45;15.70;99.90
15819;DHT22;8010;53.986;12.106;2023-07-20T06:04:10;15.70;99.90
15819;DHT22;8010;53.986;12.106;2023-07-20T06:06:36;15.70;99.90
15819;DHT22;8010;53.986;12.106;2023-07-20T06:09:02;15.80;99.90
15819;DHT22;8010;53.986;12.106;2023-07-20T06:11:33;15.90;99.90
15819;DHT22;8010;53.986;12.106;2023-07-20T06:13:58;15.90;99.90
15819;DHT22;8010;53.986;12.106;2023-07-20T06:16:24;15.90;99.90
15819;DHT22;8010;53.986;12.106;2023-07-20T06:18:49;16.00;99.90
15819;DHT22;8010;53.986;12.106;2023-07-20T06:21:15;16.10;99.90
15819;DHT22;8010;53.986;12.106;2023-07-20T06:23:41;16.30;99.90
15819;DHT22;8010;53.986;12.106;2023-07-20T06:26:07;16.30;99.90
15819;DHT22;8010;53.986;12.106;2023-07-20T06:28:33;16.50;99.90
15819;DHT22;8010;53.986;12.106;2023-07-20T06:31:02;16.60;99.90
15819;DHT22;8010;53.986;12.106;2023-07-20T06:33:28;16.70;99.90
15819;DHT22;8010;53.986;12.106;2023-07-20T06:35:53;16.70;99.90
15819;DHT22;8010;53.986;12.106;2023-07-20T06:38:19;16.80;99.90
15819;DHT22;8010;53.986;12.106;2023-07-20T06:40:47;17.00;99.90
15819;DHT22;8010;53.986;12.106;2023-07-20T06:43:13;17.00;99.90
15819;DHT22;8010;53.986;12.106;2023-07-20T06:45:38;17.10;99.90
15819;DHT22;8010;53.986;12.106;2023-07-20T06:48:04;17.20;99.90
15819;DHT22;8010;53.986;12.106;2023-07-20T06:50:30;17.40;99.90
15819;DHT22;8010;53.986;12.106;2023-07-20T06:52:55;17.50;99.90
15819;DHT22;8010;53.986;12.106;2023-07-20T06:55:21;17.50;99.90
15819;DHT22;8010;53.986;12.106;2023-07-20T06:57:46;17.70;99.90
15819;DHT22;8010;53.986;12.106;2023-07-20T07:00:12;17.80;99.90
15819;DHT22;8010;53.986;12.106;2023-07-20T07:02:38;17.90;99.90
15819;DHT22;8010;53.986;12.106;2023-07-20T07:05:04;17.90;99.90
15819;DHT22;8010;53.986;12.106;2023-07-20T07:07:30;18.00;99.90
15819;DHT22;8010;53.986;12.106;2023-07-20T07:09:56;18.00;99.90
15819;DHT22;8010;53.986;12.106;2023-07-20T07:12:21;17.90;99.90
15819;DHT22;8010;53.986;12.106;2023-07-20T07:14:47;18.00;99.90
15819;DHT22;8010;53.986;12.106;2023-07-20T07:17:12;18.10;99.90
15819;DHT22;8010;53.986;12.106;2023-07-20T07:19:38;18.30;99.90
15819;DHT22;8010;53.986;12.106;2023-07-20T07:22:04;18.20;99.90
15819;DHT22;8010;53.986;12.106;2023-07-20T07:24:29;18.10;99.90
15819;DHT22;8010;53.986;12.106;2023-07-20T07:26:59;18.00;99.90
15819;DHT22;8010;53.986;12.106;2023-07-20T07:29:24;18.00;99.90
15819;DHT22;8010;53.986;12.106;2023-07-20T07:31:51;18.20;99.90
15819;DHT22;8010;53.986;12.106;2023-07-20T07:34:16;18.40;99.90
15819;DHT22;8010;53.986;12.106;2023-07-20T07:36:42;18.70;99.90
15819;DHT22;8010;53.986;12.106;2023-07-20T07:39:08;18.50;99.90
15819;DHT22;8010;53.986;12.106;2023-07-20T07:41:34;18.20;99.90
15819;DHT22;8010;53.986;12.106;2023-07-20T07:44:00;18.20;99.90
15819;DHT22;8010;53.986;12.106;2023-07-20T07:46:25;19.20;99.90
15819;DHT22;8010;53.986;12.106;2023-07-20T07:48:51;18.80;99.90
15819;DHT22;8010;53.986;12.106;2023-07-20T07:51:17;19.00;99.90
15819;DHT22;8010;53.986;12.106;2023-07-20T07:53:42;19.10;99.90
15819;DHT22;8010;53.986;12.106;2023-07-20T07:56:09;18.90;99.90
15819;DHT22;8010;53.986;12.106;2023-07-20T07:58:34;18.90;99.90
15819;DHT22;8010;53.986;12.106;2023-07-20T08:01:00;19.00;99.90
15819;DHT22;8010;53.986;12.106;2023-07-20T08:03:25;19.20;99.90
15819;DHT22;8010;53.986;12.106;2023-07-20T08:05:54;19.40;99.90
15819;DHT22;8010;53.986;12.106;2023-07-20T08:08:20;19.60;99.90
15819;DHT22;8010;53.986;12.106;2023-07-20T08:10:46;19.80;99.90
15819;DHT22;8010;53.986;12.106;2023-07-20T08:13:12;19.70;99.90
15819;DHT22;8010;53.986;12.106;2023-07-20T08:15:38;19.30;99.90
15819;DHT22;8010;53.986;12.106;2023-07-20T08:18:03;18.90;99.90
15819;DHT22;8010;53.986;12.106;2023-07-20T08:20:29;18.90;99.90
15819;DHT22;8010;53.986;12.106;2023-07-20T08:22:55;19.00;99.90
15819;DHT22;8010;53.986;12.106;2023-07-20T08:25:21;19.20;99.90
15819;DHT22;8010;53.986;12.106;2023-07-20T08:27:47;19.30;99.90
15819;DHT22;8010;53.986;12.106;2023-07-20T08:30:13;19.30;99.90
15819;DHT22;8010;53.986;12.106;2023-07-20T08:32:38;19.50;99.90
15819;DHT22;8010;53.986;12.106;2023-07-20T08:35:05;19.80;99.90
15819;DHT22;8010;53.986;12.106;2023-07-20T08:37:31;19.80;99.90
15819;DHT22;8010;53.986;12.106;2023-07-20T08:39:56;19.90;99.90
15819;DHT22;8010;53.986;12.106;2023-07-20T08:42:22;20.00;99.90
15819;DHT22;8010;53.986;12.106;2023-07-20T08:44:48;20.20;99.90
15819;DHT22;8010;53.986;12.106;2023-07-20T08:47:16;20.20;99.90
15819;DHT22;8010;53.986;12.106;2023-07-20T08:49:42;20.00;99.90
15819;DHT22;8010;53.986;12.106;2023-07-20T08:52:08;19.90;99.90
15819;DHT22;8010;53.986;12.106;2023-07-20T08:54:34;20.20;99.90
15819;DHT22;8010;53.986;12.106;2023-07-20T08:57:05;20.40;99.90
15819;DHT22;8010;53.986;12.106;2023-07-20T08:59:31;20.40;99.90
15819;DHT22;8010;53.986;12.106;2023-07-20T09:01:59;20.60;99.90
15819;DHT22;8010;53.986;12.106;2023-07-20T09:04:24;20.80;99.90
15819;DHT22;8010;53.986;12.106;2023-07-20T09:06:50;21.10;99.90
15819;DHT22;8010;53.986;12.106;2023-07-20T09:09:16;21.00;99.90
15819;DHT22;8010;53.986;12.106;2023-07-20T09:11:42;20.80;99.90
15819;DHT22;8010;53.986;12.106;2023-07-20T09:14:09;20.90;99.90
15819;DHT22;8010;53.986;12.106;2023-07-20T09:16:53;20.90;99.90
15819;DHT22;8010;53.986;12.106;2023-07-20T09:19:20;21.00;99.90
15819;DHT22;8010;53.986;12.106;2023-07-20T09:21:51;20.80;99.90
15819;DHT22;8010;53.986;12.106;2023-07-20T09:24:20;21.00;99.90
15819;DHT22;8010;53.986;12.106;2023-07-20T09:26:48;21.10;99.90
15819;DHT22;8010;53.986;12.106;2023-07-20T09:29:16;21.40;99.90
15819;DHT22;8010;53.986;12.106;2023-07-20T09:32:01;21.70;99.90
15819;DHT22;8010;53.986;12.106;2023-07-20T09:34:31;21.90;99.90
15819;DHT22;8010;53.986;12.106;2023-07-20T09:36:58;22.10;99.90
15819;DHT22;8010;53.986;12.106;2023-07-20T09:39:24;22.30;99.90
15819;DHT22;8010;53.986;12.106;2023-07-20T09:41:51;22.10;99.90
15819;DHT22;8010;53.986;12.106;2023-07-20T09:44:17;21.50;99.90
15819;DHT22;8010;53.986;12.106;2023-07-20T09:46:46;21.80;99.90
15819;DHT22;8010;53.986;12.106;2023-07-20T09:49:13;22.30;99.90
15819;DHT22;8010;53.986;12.106;2023-07-20T09:51:40;22.60;99.90
15819;DHT22;8010;53.986;12.106;2023-07-20T09:54:06;22.30;99.90
15819;DHT22;8010;53.986;12.106;2023-07-20T09:56:33;21.80;99.90
15819;DHT22;8010;53.986;12.106;2023-07-20T09:58:58;21.40;99.90
15819;DHT22;8010;53.986;12.106;2023-07-20T10:01:26;21.20;99.90
15819;DHT22;8010;53.986;12.106;2023-07-20T10:03:54;21.10;99.90
15819;DHT22;8010;53.986;12.106;2023-07-20T10:06:24;20.80;99.90
15819;DHT22;8010;53.986;12.106;2023-07-20T10:08:53;20.80;99.90
15819;DHT22;8010;53.986;12.106;2023-07-20T10:11:22;21.20;99.90
15819;DHT22;8010;53.986;12.106;2023-07-20T10:13:53;21.60;99.90
15819;DHT22;8010;53.986;12.106;2023-07-20T10:16:29;21.80;99.90
15819;DHT22;8010;53.986;12.106;2023-07-20T10:19:13;21.80;99.90
15819;DHT22;8010;53.986;12.106;2023-07-20T10:21:47;21.80;99.90
15819;DHT22;8010;53.986;12.106;2023-07-20T10:24:14;21.90;99.90
15819;DHT22;8010;53.986;12.106;2023-07-20T10:26:41;22.10;99.90
15819;DHT22;8010;53.986;12.106;2023-07-20T10:29:07;22.70;99.90
15819;DHT22;8010;53.986;12.106;2023-07-20T10:31:33;23.10;99.90
15819;DHT22;8010;53.986;12.106;2023-07-20T10:34:00;23.30;99.90
15819;DHT22;8010;53.986;12.106;2023-07-20T10:36:27;23.40;99.90
15819;DHT22;8010;53.986;12.106;2023-07-20T10:38:54;23.10;99.90
15819;DHT22;8010;53.986;12.106;2023-07-20T10:44:02;22.40;99.90
15819;DHT22;8010;53.986;12.106;2023-07-20T10:49:06;21.40;99.90
15819;DHT22;8010;53.986;12.106;2023-07-20T10:51:43;21.50;99.90
15819;DHT22;8010;53.986;12.106;2023-07-20T10:59:41;22.20;99.90
15819;DHT22;8010;53.986;12.106;2023-07-20T11:02:09;22.60;99.90
15819;DHT22;8010;53.986;12.106;2023-07-20T11:04:38;22.70;99.90
15819;DHT22;8010;53.986;12.106;2023-07-20T11:07:05;22.80;99.90
15819;DHT22;8010;53.986;12.106;2023-07-20T11:09:35;22.90;99.90
15819;DHT22;8010;53.986;12.106;2023-07-20T11:12:13;22.50;99.90
15819;DHT22;8010;53.986;12.106;2023-07-20T11:14:43;22.10;99.90
15819;DHT22;8010;53.986;12.106;2023-07-20T11:17:15;22.30;99.90
15819;DHT22;8010;53.986;12.106;2023-07-20T11:19:41;22.90;99.90
15819;DHT22;8010;53.986;12.106;2023-07-20T11:22:07;23.30;99.90
15819;DHT22;8010;53.986;12.106;2023-07-20T11:24:34;23.40;99.90
15819;DHT22;8010;53.986;12.106;2023-07-20T11:27:00;23.10;99.90
15819;DHT22;8010;53.986;12.106;2023-07-20T11:29:26;22.70;99.90
15819;DHT22;8010;53.986;12.106;2023-07-20T11:31:52;22.20;99.90
15819;DHT22;8010;53.986;12.106;2023-07-20T11:34:20;21.40;99.90
15819;DHT22;8010;53.986;12.106;2023-07-20T11:36:47;20.70;99.90
15819;DHT22;8010;53.986;12.106;2023-07-20T11:39:15;20.30;99.90
15819;DHT22;8010;53.986;12.106;2023-07-20T11:41:47;20.00;99.90
15819;DHT22;8010;53.986;12.106;2023-07-20T11:44:13;20.00;99.90
15819;DHT22;8010;53.986;12.106;2023-07-20T11:46:41;20.10;99.90
15819;DHT22;8010;53.986;12.106;2023-07-20T11:49:07;20.50;99.90
15819;DHT22;8010;53.986;12.106;2023-07-20T11:51:33;20.90;99.90
15819;DHT22;8010;53.986;12.106;2023-07-20T11:54:01;21.50;99.90
15819;DHT22;8010;53.986;12.106;2023-07-20T11:56:27;22.20;99.90
15819;DHT22;8010;53.986;12.106;2023-07-20T11:59:00;22.50;99.90
15819;DHT22;8010;53.986;12.106;2023-07-20T12:01:28;22.60;99.90
15819;DHT22;8010;53.986;12.106;2023-07-20T12:03:59;22.30;99.90
15819;DHT22;8010;53.986;12.106;2023-07-20T12:06:25;21.90;99.90
15819;DHT22;8010;53.986;12.106;2023-07-20T12:08:55;21.60;99.90
15819;DHT22;8010;53.986;12.106;2023-07-20T12:11:37;21.60;99.90
15819;DHT22;8010;53.986;12.106;2023-07-20T12:14:07;21.60;99.90
15819;DHT22;8010;53.986;12.106;2023-07-20T12:16:33;21.60;99.90
15819;DHT22;8010;53.986;12.106;2023-07-20T12:19:05;21.80;99.90
15819;DHT22;8010;53.986;12.106;2023-07-20T12:21:31;22.00;99.90
15819;DHT22;8010;53.986;12.106;2023-07-20T12:23:58;22.40;99.90
15819;DHT22;8010;53.986;12.106;2023-07-20T12:26:24;22.90;99.90
15819;DHT22;8010;53.986;12.106;2023-07-20T12:28:51;23.30;99.90
15819;DHT22;8010;53.986;12.106;2023-07-20T12:31:16;23.70;99.90
15819;DHT22;8010;53.986;12.106;2023-07-20T12:33:42;24.00;99.90
15819;DHT22;8010;53.986;12.106;2023-07-20T12:36:09;24.40;99.90
15819;DHT22;8010;53.986;12.106;2023-07-20T12:38:35;24.80;99.90
15819;DHT22;8010;53.986;12.106;2023-07-20T12:41:01;24.90;99.90
15819;DHT22;8010;53.986;12.106;2023-07-20T12:43:27;24.60;99.90
15819;DHT22;8010;53.986;12.106;2023-07-20T12:45:53;24.60;99.90
15819;DHT22;8010;53.986;12.106;2023-07-20T12:48:18;24.40;99.90
15819;DHT22;8010;53.986;12.106;2023-07-20T12:50:44;23.90;99.90
15819;DHT22;8010;53.986;12.106;2023-07-20T12:53:10;23.40;99.90
15819;DHT22;8010;53.986;12.106;2023-07-20T12:55:37;23.00;99.90
15819;DHT22;8010;53.986;12.106;2023-07-20T12:58:02;22.80;99.90
15819;DHT22;8010;53.986;12.106;2023-07-20T13:00:28;22.60;99.90
15819;DHT22;8010;53.986;12.106;2023-07-20T13:02:53;22.20;99.90
15819;DHT22;8010;53.986;12.106;2023-07-20T13:05:19;21.90;99.90
15819;DHT22;8010;53.986;12.106;2023-07-20T13:07:45;22.00;99.90
15819;DHT22;8010;53.986;12.106;2023-07-20T13:10:11;22.30;99.90
15819;DHT22;8010;53.986;12.106;2023-07-20T13:12:38;22.70;99.90
15819;DHT22;8010;53.986;12.106;2023-07-20T13:15:05;23.10;99.90
15819;DHT22;8010;53.986;12.106;2023-07-20T13:17:32;23.10;99.90
15819;DHT22;8010;53.986;12.106;2023-07-20T13:19:58;22.70;99.90
15819;DHT22;8010;53.986;12.106;2023-07-20T13:22:24;22.50;99.90
15819;DHT22;8010;53.986;12.106;2023-07-20T13:24:49;22.70;99.90
15819;DHT22;8010;53.986;12.106;2023-07-20T13:27:18;22.90;99.90
15819;DHT22;8010;53.986;12.106;2023-07-20T13:29:44;22.70;99.90
15819;DHT22;8010;53.986;12.106;2023-07-20T13:32:13;22.70;99.90
15819;DHT22;8010;53.986;12.106;2023-07-20T13:34:38;23.10;99.90
15819;DHT22;8010;53.986;12.106;2023-07-20T13:37:04;23.30;99.90
15819;DHT22;8010;53.986;12.106;2023-07-20T13:39:30;23.10;99.90
15819;DHT22;8010;53.986;12.106;2023-07-20T13:41:55;23.30;99.90
15819;DHT22;8010;53.986;12.106;2023-07-20T13:44:21;23.60;99.90
15819;DHT22;8010;53.986;12.106;2023-07-20T13:46:47;23.70;99.90
15819;DHT22;8010;53.986;12.106;2023-07-20T13:49:13;23.50;99.90
15819;DHT22;8010;53.986;12.106;2023-07-20T13:51:39;23.40;99.90
15819;DHT22;8010;53.986;12.106;2023-07-20T13:54:05;23.50;99.90
15819;DHT22;8010;53.986;12.106;2023-07-20T13:56:31;23.40;99.90
15819;DHT22;8010;53.986;12.106;2023-07-20T13:58:57;23.50;99.90
15819;DHT22;8010;53.986;12.106;2023-07-20T14:01:23;23.80;99.90
15819;DHT22;8010;53.986;12.106;2023-07-20T14:03:50;24.00;99.90
15819;DHT22;8010;53.986;12.106;2023-07-20T14:06:15;24.40;99.90
15819;DHT22;8010;53.986;12.106;2023-07-20T14:08:41;24.70;99.90
15819;DHT22;8010;53.986;12.106;2023-07-20T14:11:07;24.60;99.90
15819;DHT22;8010;53.986;12.106;2023-07-20T14:13:32;24.30;99.90
15819;DHT22;8010;53.986;12.106;2023-07-20T14:15:58;24.10;99.90
15819;DHT22;8010;53.986;12.106;2023-07-20T14:18:24;23.80;99.90
15819;DHT22;8010;53.986;12.106;2023-07-20T14:20:49;23.60;99.90
15819;DHT22;8010;53.986;12.106;2023-07-20T14:23:15;23.40;99.90
15819;DHT22;8010;53.986;12.106;2023-07-20T14:25:40;23.10;99.90
15819;DHT22;8010;53.986;12.106;2023-07-20T14:28:07;22.90;99.90
15819;DHT22;8010;53.986;12.106;2023-07-20T14:30:32;22.60;99.90
15819;DHT22;8010;53.986;12.106;2023-07-20T14:32:58;22.30;99.90
15819;DHT22;8010;53.986;12.106;2023-07-20T14:35:23;21.90;99.90
15819;DHT22;8010;53.986;12.106;2023-07-20T14:37:49;21.30;99.90
15819;DHT22;8010;53.986;12.106;2023-07-20T14:40:15;20.90;99.90
15819;DHT22;8010;53.986;12.106;2023-07-20T14:42:41;20.50;99.90
15819;DHT22;8010;53.986;12.106;2023-07-20T14:45:06;20.30;99.90
15819;DHT22;8010;53.986;12.106;2023-07-20T14:47:33;20.20;99.90
15819;DHT22;8010;53.986;12.106;2023-07-20T14:50:01;20.10;99.90
15819;DHT22;8010;53.986;12.106;2023-07-20T14:52:27;20.00;99.90
15819;DHT22;8010;53.986;12.106;2023-07-20T14:54:54;20.10;99.90
15819;DHT22;8010;53.986;12.106;2023-07-20T14:57:19;20.20;99.90
15819;DHT22;8010;53.986;12.106;2023-07-20T14:59:46;20.60;99.90
15819;DHT22;8010;53.986;12.106;2023-07-20T15:02:11;21.20;99.90
15819;DHT22;8010;53.986;12.106;2023-07-20T15:04:37;21.90;99.90
15819;DHT22;8010;53.986;12.106;2023-07-20T15:07:03;22.30;99.90
15819;DHT22;8010;53.986;12.106;2023-07-20T15:09:28;22.40;99.90
15819;DHT22;8010;53.986;12.106;2023-07-20T15:11:54;22.50;99.90
15819;DHT22;8010;53.986;12.106;2023-07-20T15:14:19;22.60;99.90
15819;DHT22;8010;53.986;12.106;2023-07-20T15:16:45;22.30;99.90
15819;DHT22;8010;53.986;12.106;2023-07-20T15:19:11;22.20;99.90
15819;DHT22;8010;53.986;12.106;2023-07-20T15:21:38;22.30;99.90
15819;DHT22;8010;53.986;12.106;2023-07-20T15:24:05;22.10;99.90
15819;DHT22;8010;53.986;12.106;2023-07-20T15:26:30;21.80;99.90
15819;DHT22;8010;53.986;12.106;2023-07-20T15:28:58;21.60;99.90
15819;DHT22;8010;53.986;12.106;2023-07-20T15:31:24;21.50;99.90
15819;DHT22;8010;53.986;12.106;2023-07-20T15:33:49;21.40;99.90
15819;DHT22;8010;53.986;12.106;2023-07-20T15:36:15;21.20;99.90
15819;DHT22;8010;53.986;12.106;2023-07-20T15:38:40;21.30;99.90
15819;DHT22;8010;53.986;12.106;2023-07-20T15:41:06;21.20;99.90